createdAt,value
2016-11-15T00:00:16.711Z,18.19
2016-11-15T00:00:49.029Z,18.14
2016-11-15T00:01:21.435Z,18.19
2016-11-15T00:01:53.765Z,18.26
2016-11-15T00:02:26.137Z,18.23
2016-11-15T00:02:58.456Z,18.21
2016-11-15T00:03:30.760Z,18.16
2016-11-15T00:04:03.099Z,18.14
2016-11-15T00:04:35.457Z,18.14
2016-11-15T00:05:07.780Z,18.13
2016-11-15T00:05:40.089Z,18.21
2016-11-15T00:06:12.397Z,18.2
2016-11-15T00:06:44.711Z,18.03
2016-11-15T00:07:17.046Z,18.2
2016-11-15T00:07:49.370Z,18.2
2016-11-15T00:08:21.698Z,18.17
2016-11-15T00:08:54.015Z,18.19
2016-11-15T00:09:26.345Z,18.13
2016-11-15T00:09:58.661Z,18.17
2016-11-15T00:10:30.981Z,18.23
2016-11-15T00:11:03.319Z,18.21
2016-11-15T00:11:35.653Z,18.21
2016-11-15T00:12:07.999Z,18.16
2016-11-15T00:12:40.326Z,18.05
2016-11-15T00:13:12.650Z,18.19
2016-11-15T00:13:45.001Z,18.16
2016-11-15T00:14:17.314Z,18.21
2016-11-15T00:14:49.628Z,18.11
2016-11-15T00:15:21.954Z,18.11
2016-11-15T00:15:54.280Z,18.13
2016-11-15T00:16:26.639Z,18.2
2016-11-15T00:16:58.976Z,18.19
2016-11-15T00:17:31.306Z,18.2
2016-11-15T00:18:03.634Z,18.14
2016-11-15T00:18:35.969Z,18.16
2016-11-15T00:19:08.294Z,18.14
2016-11-15T00:19:40.620Z,18.14
2016-11-15T00:20:12.943Z,18.11
2016-11-15T00:20:45.255Z,18.14
2016-11-15T00:21:17.579Z,18.14
2016-11-15T00:21:49.949Z,18.05
2016-11-15T00:22:22.274Z,18.19
2016-11-15T00:22:54.597Z,18.16
2016-11-15T00:23:26.932Z,18.05
2016-11-15T00:23:59.298Z,18.23
2016-11-15T00:24:31.620Z,18.14
2016-11-15T00:25:03.930Z,18.06
2016-11-15T00:25:36.247Z,18.13
2016-11-15T00:26:08.578Z,18.14
2016-11-15T00:26:40.891Z,18.14
2016-11-15T00:27:13.215Z,18.2
2016-11-15T00:27:45.529Z,18.08
2016-11-15T00:28:17.841Z,18.17
2016-11-15T00:28:50.168Z,18.14
2016-11-15T00:29:22.490Z,18.19
2016-11-15T00:29:54.829Z,18.11
2016-11-15T00:30:27.171Z,18.17
2016-11-15T00:30:59.509Z,18.13
2016-11-15T00:31:31.825Z,18.2
2016-11-15T00:32:04.151Z,18.19
2016-11-15T00:32:36.469Z,18.17
2016-11-15T00:33:08.775Z,18.14
2016-11-15T00:33:41.136Z,18.17
2016-11-15T00:34:13.463Z,18.16
2016-11-15T00:34:45.786Z,18.21
2016-11-15T00:35:18.099Z,18.17
2016-11-15T00:35:50.417Z,18.13
2016-11-15T00:36:22.732Z,18.16
2016-11-15T00:36:55.095Z,18.17
2016-11-15T00:37:27.417Z,18.03
2016-11-15T00:37:59.746Z,18.16
2016-11-15T00:38:32.086Z,18.16
2016-11-15T00:39:04.407Z,18.2
2016-11-15T00:39:36.725Z,18.02
2016-11-15T00:40:09.061Z,18.16
2016-11-15T00:40:41.380Z,18.1
2016-11-15T00:41:13.735Z,18.17
2016-11-15T00:41:46.058Z,18.1
2016-11-15T00:42:18.380Z,18.17
2016-11-15T00:42:50.707Z,18.1
2016-11-15T00:43:23.035Z,18.19
2016-11-15T00:43:55.358Z,18.19
2016-11-15T00:44:27.682Z,18.1
2016-11-15T00:45:00.016Z,18.2
2016-11-15T00:45:32.348Z,18.11
2016-11-15T00:46:04.720Z,18.21
2016-11-15T00:46:37.047Z,18.08
2016-11-15T00:47:09.370Z,18.2
2016-11-15T00:47:41.701Z,18.21
2016-11-15T00:48:14.032Z,18.16
2016-11-15T00:48:46.372Z,18.17
2016-11-15T00:49:18.702Z,18.06
2016-11-15T00:49:51.027Z,18.13
2016-11-15T00:50:23.372Z,18.13
2016-11-15T00:50:55.688Z,18.14
2016-11-15T00:51:27.993Z,18.08
2016-11-15T00:52:00.331Z,18.17
2016-11-15T00:52:32.674Z,18.03
2016-11-15T00:53:04.994Z,18.03
2016-11-15T00:53:37.355Z,18.08
2016-11-15T00:54:10.655Z,18.03
2016-11-15T00:54:42.978Z,18.2
2016-11-15T00:55:15.299Z,18.21
2016-11-15T00:55:47.608Z,18.2
2016-11-15T00:56:19.928Z,18.06
2016-11-15T00:56:52.262Z,18.03
2016-11-15T00:57:24.590Z,18.03
2016-11-15T00:57:56.948Z,18.05
2016-11-15T00:58:29.263Z,18.11
2016-11-15T00:59:01.571Z,18.06
2016-11-15T00:59:33.891Z,18.06
2016-11-15T01:00:06.212Z,18.03
2016-11-15T01:00:38.534Z,18.05
2016-11-15T01:01:10.840Z,18.16
2016-11-15T01:01:43.162Z,18.06
2016-11-15T01:02:15.482Z,18.03
2016-11-15T01:02:47.812Z,18.1
2016-11-15T01:03:20.155Z,18.05
2016-11-15T01:03:52.519Z,18.05
2016-11-15T01:04:24.860Z,18.01
2016-11-15T01:04:57.182Z,18.03
2016-11-15T01:05:29.498Z,18.1
2016-11-15T01:06:01.825Z,18.06
2016-11-15T01:06:34.217Z,17.99
2016-11-15T01:07:07.122Z,18.13
2016-11-15T01:07:39.454Z,18.08
2016-11-15T01:08:11.787Z,18.06
2016-11-15T01:08:44.107Z,18.1
2016-11-15T01:09:16.436Z,18.02
2016-11-15T01:09:48.756Z,18.06
2016-11-15T01:10:21.083Z,18.11
2016-11-15T01:10:53.399Z,18.13
2016-11-15T01:11:25.746Z,18.08
2016-11-15T01:11:58.083Z,18.06
2016-11-15T01:12:30.419Z,18.08
2016-11-15T01:13:02.747Z,18.13
2016-11-15T01:13:35.115Z,18.08
2016-11-15T01:14:07.438Z,17.99
2016-11-15T01:14:39.773Z,18.01
2016-11-15T01:15:12.127Z,18.05
2016-11-15T01:15:44.470Z,18.1
2016-11-15T01:16:16.804Z,18.03
2016-11-15T01:16:49.132Z,18.08
2016-11-15T01:17:21.470Z,17.99
2016-11-15T01:17:53.803Z,18.05
2016-11-15T01:18:26.164Z,18.08
2016-11-15T01:18:58.491Z,18.08
2016-11-15T01:19:30.815Z,18.11
2016-11-15T01:20:03.138Z,18.02
2016-11-15T01:20:35.476Z,18.05
2016-11-15T01:21:07.824Z,18.06
2016-11-15T01:21:40.144Z,17.99
2016-11-15T01:22:12.471Z,18.03
2016-11-15T01:22:44.806Z,18.03
2016-11-15T01:23:17.127Z,18.05
2016-11-15T01:23:49.462Z,17.99
2016-11-15T01:24:21.815Z,17.99
2016-11-15T01:24:54.142Z,18.05
2016-11-15T01:25:26.464Z,18.05
2016-11-15T01:25:58.786Z,18.08
2016-11-15T01:26:31.128Z,18.05
2016-11-15T01:27:03.454Z,18.06
2016-11-15T01:27:35.771Z,18.02
2016-11-15T01:28:08.086Z,18.02
2016-11-15T01:28:40.443Z,18.1
2016-11-15T01:29:12.766Z,18.05
2016-11-15T01:29:45.105Z,18.02
2016-11-15T01:30:17.421Z,17.98
2016-11-15T01:30:49.745Z,18.02
2016-11-15T01:31:22.076Z,18.05
2016-11-15T01:31:54.406Z,18.02
2016-11-15T01:32:26.728Z,18.05
2016-11-15T01:32:59.076Z,17.96
2016-11-15T01:33:31.405Z,18.05
2016-11-15T01:34:03.741Z,18.02
2016-11-15T01:34:36.079Z,18.03
2016-11-15T01:35:08.403Z,18.01
2016-11-15T01:35:40.716Z,18.05
2016-11-15T01:36:13.048Z,18.02
2016-11-15T01:36:45.375Z,17.96
2016-11-15T01:37:17.750Z,18.03
2016-11-15T01:37:50.086Z,18.05
2016-11-15T01:38:22.418Z,18.03
2016-11-15T01:38:54.738Z,17.95
2016-11-15T01:39:27.067Z,17.99
2016-11-15T01:39:59.395Z,18.05
2016-11-15T01:40:31.744Z,18.1
2016-11-15T01:41:04.066Z,18.1
2016-11-15T01:41:36.399Z,17.99
2016-11-15T01:42:08.729Z,18.06
2016-11-15T01:42:41.086Z,18.01
2016-11-15T01:43:13.419Z,17.98
2016-11-15T01:43:45.751Z,18.02
2016-11-15T01:44:18.075Z,17.98
2016-11-15T01:44:50.390Z,17.99
2016-11-15T01:45:22.710Z,17.99
2016-11-15T01:45:55.039Z,18.05
2016-11-15T01:46:27.373Z,17.98
2016-11-15T01:46:59.690Z,17.96
2016-11-15T01:47:32.008Z,18.01
2016-11-15T01:48:04.327Z,18.02
2016-11-15T01:48:36.657Z,17.99
2016-11-15T01:49:08.975Z,18.08
2016-11-15T01:49:41.333Z,18.01
2016-11-15T01:50:13.644Z,18.01
2016-11-15T01:50:45.981Z,18.01
2016-11-15T01:51:18.317Z,17.99
2016-11-15T01:51:50.654Z,17.95
2016-11-15T01:52:22.967Z,17.92
2016-11-15T01:52:55.284Z,17.87
2016-11-15T01:53:27.613Z,18.01
2016-11-15T01:53:59.952Z,18.05
2016-11-15T01:54:32.281Z,17.9
2016-11-15T01:55:04.597Z,17.94
2016-11-15T01:55:36.914Z,17.92
2016-11-15T01:56:09.240Z,18.02
2016-11-15T01:56:41.591Z,17.99
2016-11-15T01:57:13.916Z,17.98
2016-11-15T01:57:46.239Z,17.95
2016-11-15T01:58:18.567Z,17.99
2016-11-15T01:58:50.893Z,18.02
2016-11-15T01:59:23.219Z,17.94
2016-11-15T01:59:55.542Z,17.95
2016-11-15T02:00:27.879Z,17.92
2016-11-15T02:01:00.193Z,17.96
2016-11-15T02:01:32.550Z,17.95
2016-11-15T02:02:04.858Z,17.98
2016-11-15T02:02:37.184Z,18.05
2016-11-15T02:03:09.499Z,17.9
2016-11-15T02:03:41.817Z,17.98
2016-11-15T02:04:14.180Z,17.98
2016-11-15T02:04:46.507Z,17.96
2016-11-15T02:05:18.826Z,17.95
2016-11-15T02:05:51.152Z,17.98
2016-11-15T02:06:23.466Z,17.98
2016-11-15T02:06:55.791Z,17.88
2016-11-15T02:07:28.123Z,17.92
2016-11-15T02:08:00.450Z,17.98
2016-11-15T02:08:32.789Z,17.95
2016-11-15T02:09:05.148Z,17.98
2016-11-15T02:09:37.463Z,17.96
2016-11-15T02:10:09.794Z,18.01
2016-11-15T02:10:42.128Z,18.02
2016-11-15T02:11:14.452Z,17.86
2016-11-15T02:11:46.776Z,17.95
2016-11-15T02:12:19.095Z,17.92
2016-11-15T02:12:51.420Z,17.96
2016-11-15T02:13:23.759Z,17.95
2016-11-15T02:13:56.090Z,17.95
2016-11-15T02:14:28.445Z,17.9
2016-11-15T02:15:00.759Z,17.95
2016-11-15T02:15:33.088Z,17.92
2016-11-15T02:16:05.414Z,17.94
2016-11-15T02:16:37.758Z,17.95
2016-11-15T02:17:10.092Z,17.96
2016-11-15T02:17:42.444Z,17.99
2016-11-15T02:18:14.769Z,17.96
2016-11-15T02:18:47.103Z,17.99
2016-11-15T02:19:19.424Z,17.94
2016-11-15T02:19:51.784Z,17.9
2016-11-15T02:20:24.114Z,17.99
2016-11-15T02:20:56.442Z,17.98
2016-11-15T02:21:28.776Z,17.94
2016-11-15T02:22:01.089Z,17.94
2016-11-15T02:22:33.418Z,17.98
2016-11-15T02:23:05.749Z,17.94
2016-11-15T02:23:38.083Z,17.95
2016-11-15T02:24:10.432Z,17.94
2016-11-15T02:24:42.765Z,17.98
2016-11-15T02:25:15.085Z,17.94
2016-11-15T02:25:47.411Z,17.98
2016-11-15T02:26:19.742Z,17.95
2016-11-15T02:26:52.076Z,17.96
2016-11-15T02:27:24.449Z,17.96
2016-11-15T02:27:56.791Z,17.98
2016-11-15T02:28:29.124Z,17.98
2016-11-15T02:29:01.449Z,17.96
2016-11-15T02:29:33.772Z,17.95
2016-11-15T02:30:06.088Z,17.95
2016-11-15T02:30:38.418Z,17.98
2016-11-15T02:31:10.751Z,17.96
2016-11-15T02:31:43.082Z,17.95
2016-11-15T02:32:15.399Z,17.96
2016-11-15T02:32:47.735Z,17.96
2016-11-15T02:33:20.051Z,17.98
2016-11-15T02:33:52.403Z,17.96
2016-11-15T02:34:24.727Z,17.95
2016-11-15T02:34:57.085Z,17.94
2016-11-15T02:35:29.449Z,17.95
2016-11-15T02:36:01.780Z,17.98
2016-11-15T02:36:34.141Z,17.99
2016-11-15T02:37:06.470Z,17.94
2016-11-15T02:37:38.801Z,17.98
2016-11-15T02:38:11.132Z,17.99
2016-11-15T02:38:43.453Z,17.92
2016-11-15T02:39:15.788Z,17.96
2016-11-15T02:39:48.117Z,17.95
2016-11-15T02:40:20.442Z,17.88
2016-11-15T02:40:52.770Z,17.95
2016-11-15T02:41:25.090Z,17.94
2016-11-15T02:41:57.447Z,17.99
2016-11-15T02:42:29.770Z,17.98
2016-11-15T02:43:02.100Z,17.98
2016-11-15T02:43:34.423Z,17.92
2016-11-15T02:44:06.754Z,17.99
2016-11-15T02:44:39.079Z,17.94
2016-11-15T02:45:11.417Z,17.96
2016-11-15T02:45:43.740Z,17.95
2016-11-15T02:46:16.075Z,17.94
2016-11-15T02:46:48.429Z,17.87
2016-11-15T02:47:20.765Z,17.96
2016-11-15T02:47:53.089Z,17.99
2016-11-15T02:48:25.428Z,18.01
2016-11-15T02:48:57.757Z,17.92
2016-11-15T02:49:30.080Z,17.99
2016-11-15T02:50:02.410Z,17.96
2016-11-15T02:50:34.744Z,17.99
2016-11-15T02:51:07.061Z,17.92
2016-11-15T02:51:39.384Z,17.98
2016-11-15T02:52:11.704Z,17.95
2016-11-15T02:52:44.040Z,17.96
2016-11-15T02:53:16.366Z,17.86
2016-11-15T02:53:48.691Z,17.96
2016-11-15T02:54:21.067Z,17.96
2016-11-15T02:54:53.408Z,17.9
2016-11-15T02:55:25.729Z,18.01
2016-11-15T02:55:58.057Z,17.99
2016-11-15T02:56:30.407Z,18.01
2016-11-15T02:57:02.726Z,17.96
2016-11-15T02:57:35.057Z,18.01
2016-11-15T02:58:07.391Z,17.88
2016-11-15T02:58:39.705Z,17.98
2016-11-15T02:59:12.027Z,17.98
2016-11-15T02:59:44.367Z,17.94
2016-11-15T03:00:16.678Z,17.94
2016-11-15T03:00:49.013Z,17.9
2016-11-15T03:01:21.340Z,17.92
2016-11-15T03:01:53.676Z,17.99
2016-11-15T03:02:26.004Z,18.03
2016-11-15T03:02:58.321Z,17.92
2016-11-15T03:03:30.651Z,17.98
2016-11-15T03:04:02.970Z,17.96
2016-11-15T03:04:35.283Z,17.98
2016-11-15T03:05:07.605Z,18.01
2016-11-15T03:05:39.932Z,18.01
2016-11-15T03:06:12.254Z,17.98
2016-11-15T03:06:44.591Z,17.92
2016-11-15T03:07:16.916Z,17.9
2016-11-15T03:07:49.259Z,17.99
2016-11-15T03:08:21.610Z,17.92
2016-11-15T03:08:53.911Z,17.99
2016-11-15T03:09:26.241Z,17.99
2016-11-15T03:09:58.568Z,17.98
2016-11-15T03:10:30.940Z,17.99
2016-11-15T03:11:03.274Z,17.99
2016-11-15T03:11:35.591Z,17.9
2016-11-15T03:12:07.924Z,17.95
2016-11-15T03:12:40.256Z,17.99
2016-11-15T03:13:12.579Z,17.96
2016-11-15T03:13:44.886Z,17.95
2016-11-15T03:14:17.217Z,17.96
2016-11-15T03:14:49.548Z,17.98
2016-11-15T03:15:21.876Z,18.03
2016-11-15T03:15:54.214Z,18.01
2016-11-15T03:16:26.565Z,18.01
2016-11-15T03:16:58.932Z,17.99
2016-11-15T03:17:31.259Z,17.96
2016-11-15T03:18:03.595Z,17.98
2016-11-15T03:18:35.919Z,18.05
2016-11-15T03:19:08.236Z,17.96
2016-11-15T03:19:40.551Z,17.9
2016-11-15T03:20:12.875Z,18.1
2016-11-15T03:20:45.230Z,18.01
2016-11-15T03:21:17.565Z,17.92
2016-11-15T03:21:49.892Z,18.01
2016-11-15T03:22:22.210Z,17.96
2016-11-15T03:22:54.549Z,18.01
2016-11-15T03:23:26.888Z,18.1
2016-11-15T03:23:59.222Z,18.03
2016-11-15T03:24:31.567Z,18.01
2016-11-15T03:25:03.906Z,18.01
2016-11-15T03:25:36.220Z,17.95
2016-11-15T03:26:08.552Z,18.06
2016-11-15T03:26:40.880Z,17.98
2016-11-15T03:27:13.196Z,18.05
2016-11-15T03:27:45.509Z,18.06
2016-11-15T03:28:17.831Z,17.94
2016-11-15T03:28:50.192Z,17.98
2016-11-15T03:29:22.514Z,18.03
2016-11-15T03:29:54.842Z,18.02
2016-11-15T03:30:27.161Z,17.95
2016-11-15T03:30:59.487Z,18.01
2016-11-15T03:31:31.829Z,18.03
2016-11-15T03:32:04.151Z,17.96
2016-11-15T03:32:36.512Z,17.99
2016-11-15T03:33:08.822Z,18.02
2016-11-15T03:33:41.134Z,17.96
2016-11-15T03:34:13.460Z,17.98
2016-11-15T03:34:45.793Z,18.03
2016-11-15T03:35:18.119Z,18.02
2016-11-15T03:35:50.449Z,18.03
2016-11-15T03:36:22.775Z,18.05
2016-11-15T03:36:55.113Z,18.02
2016-11-15T03:37:27.448Z,18.05
2016-11-15T03:37:59.761Z,18.05
2016-11-15T03:38:32.109Z,18.02
2016-11-15T03:39:04.436Z,17.99
2016-11-15T03:39:36.766Z,18.05
2016-11-15T03:40:09.089Z,18.05
2016-11-15T03:40:41.408Z,18.01
2016-11-15T03:41:13.738Z,17.99
2016-11-15T03:41:46.061Z,17.99
2016-11-15T03:42:18.381Z,17.99
2016-11-15T03:42:50.699Z,17.96
2016-11-15T03:43:23.017Z,17.94
2016-11-15T03:43:55.331Z,17.99
2016-11-15T03:44:27.659Z,18.01
2016-11-15T03:44:59.995Z,18.06
2016-11-15T03:45:32.325Z,18.08
2016-11-15T03:46:04.663Z,18.01
2016-11-15T03:46:37.009Z,18.05
2016-11-15T03:47:09.385Z,18.02
2016-11-15T03:47:41.710Z,18.03
2016-11-15T03:48:14.037Z,17.99
2016-11-15T03:48:46.357Z,17.99
2016-11-15T03:49:18.687Z,18.1
2016-11-15T03:49:51.013Z,18.02
2016-11-15T03:50:23.340Z,18.01
2016-11-15T03:50:55.661Z,17.99
2016-11-15T03:51:28.001Z,18.05
2016-11-15T03:52:00.341Z,18.06
2016-11-15T03:52:32.675Z,18.05
2016-11-15T03:53:05.030Z,18.02
2016-11-15T03:53:37.363Z,18.1
2016-11-15T03:54:09.694Z,18.08
2016-11-15T03:54:42.015Z,18.02
2016-11-15T03:55:14.329Z,18.01
2016-11-15T03:55:46.636Z,18.05
2016-11-15T03:56:18.970Z,18.02
2016-11-15T03:56:51.292Z,18.03
2016-11-15T03:57:23.616Z,18.03
2016-11-15T03:57:55.954Z,18.02
2016-11-15T03:58:28.323Z,17.98
2016-11-15T03:59:00.636Z,18.03
2016-11-15T03:59:32.969Z,18.17
2016-11-15T04:00:05.294Z,18.11
2016-11-15T04:00:37.610Z,18.08
2016-11-15T04:01:09.943Z,18.02
2016-11-15T04:01:42.266Z,18.05
2016-11-15T04:02:14.593Z,18.02
2016-11-15T04:02:46.929Z,18.11
2016-11-15T04:03:19.258Z,18.02
2016-11-15T04:03:51.591Z,18.03
2016-11-15T04:04:23.904Z,18.01
2016-11-15T04:04:56.235Z,17.99
2016-11-15T04:05:28.566Z,18.02
2016-11-15T04:06:00.895Z,18.03
2016-11-15T04:06:33.207Z,18.08
2016-11-15T04:07:05.552Z,18.08
2016-11-15T04:07:37.870Z,18.03
2016-11-15T04:08:10.202Z,18.16
2016-11-15T04:08:42.523Z,18.13
2016-11-15T04:09:14.857Z,18.06
2016-11-15T04:09:47.193Z,18.06
2016-11-15T04:10:19.513Z,18.06
2016-11-15T04:10:51.863Z,18.14
2016-11-15T04:11:24.189Z,18.06
2016-11-15T04:11:56.526Z,18.08
2016-11-15T04:12:28.868Z,18.13
2016-11-15T04:13:01.205Z,18.02
2016-11-15T04:13:33.573Z,18.02
2016-11-15T04:14:05.902Z,18.05
2016-11-15T04:14:38.225Z,18.05
2016-11-15T04:15:10.554Z,18.1
2016-11-15T04:15:42.875Z,18.05
2016-11-15T04:16:15.246Z,18.14
2016-11-15T04:16:47.571Z,18.05
2016-11-15T04:17:19.902Z,18.1
2016-11-15T04:17:52.231Z,18.13
2016-11-15T04:18:24.559Z,18.02
2016-11-15T04:18:56.891Z,18.03
2016-11-15T04:19:29.217Z,18.01
2016-11-15T04:20:01.531Z,18.14
2016-11-15T04:20:33.861Z,18.03
2016-11-15T04:21:06.186Z,18.08
2016-11-15T04:21:38.511Z,18.05
2016-11-15T04:22:10.826Z,18.03
2016-11-15T04:22:43.147Z,18.01
2016-11-15T04:23:15.461Z,18.06
2016-11-15T04:23:47.787Z,18.03
2016-11-15T04:24:20.117Z,18.05
2016-11-15T04:24:52.442Z,18.03
2016-11-15T04:25:24.794Z,18.05
2016-11-15T04:25:57.107Z,18.16
2016-11-15T04:26:29.441Z,18.1
2016-11-15T04:27:01.761Z,18.06
2016-11-15T04:27:34.083Z,18.17
2016-11-15T04:28:06.401Z,18.02
2016-11-15T04:28:38.733Z,18.03
2016-11-15T04:29:11.099Z,18.02
2016-11-15T04:29:43.427Z,18.19
2016-11-15T04:30:15.759Z,18.02
2016-11-15T04:30:48.091Z,18.05
2016-11-15T04:31:20.405Z,18.03
2016-11-15T04:31:52.722Z,18.05
2016-11-15T04:32:25.068Z,18.11
2016-11-15T04:32:57.434Z,18.11
2016-11-15T04:33:29.800Z,18.03
2016-11-15T04:34:02.116Z,18.03
2016-11-15T04:34:34.442Z,18.05
2016-11-15T04:35:06.778Z,18.03
2016-11-15T04:35:39.094Z,18.08
2016-11-15T04:36:11.442Z,18.02
2016-11-15T04:36:43.774Z,18.05
2016-11-15T04:37:16.092Z,18.17
2016-11-15T04:37:48.427Z,18.03
2016-11-15T04:38:20.750Z,18.14
2016-11-15T04:38:53.075Z,18.02
2016-11-15T04:39:25.394Z,18.05
2016-11-15T04:39:57.738Z,18.05
2016-11-15T04:40:30.062Z,18.21
2016-11-15T04:41:02.379Z,18.05
2016-11-15T04:41:34.702Z,18.06
2016-11-15T04:42:07.032Z,18.17
2016-11-15T04:42:39.353Z,18.08
2016-11-15T04:43:11.654Z,18.02
2016-11-15T04:43:43.955Z,18.17
2016-11-15T04:44:16.286Z,18.02
2016-11-15T04:44:48.618Z,18.13
2016-11-15T04:45:20.951Z,18.1
2016-11-15T04:45:53.262Z,18.13
2016-11-15T04:46:26.306Z,18.11
2016-11-15T04:46:58.637Z,18.1
2016-11-15T04:47:30.951Z,18.19
2016-11-15T04:48:03.282Z,18.2
2016-11-15T04:48:35.610Z,18.11
2016-11-15T04:49:07.930Z,18.14
2016-11-15T04:49:40.253Z,18.11
2016-11-15T04:50:12.561Z,18.19
2016-11-15T04:50:44.871Z,18.13
2016-11-15T04:51:17.194Z,18.16
2016-11-15T04:51:49.522Z,18.16
2016-11-15T04:52:21.865Z,18.17
2016-11-15T04:52:54.197Z,18.19
2016-11-15T04:53:26.516Z,18.13
2016-11-15T04:53:58.851Z,18.16
2016-11-15T04:54:31.186Z,18.23
2016-11-15T04:55:03.508Z,18.19
2016-11-15T04:55:35.847Z,18.2
2016-11-15T04:56:08.176Z,18.1
2016-11-15T04:56:40.486Z,18.16
2016-11-15T04:57:12.815Z,18.2
2016-11-15T04:57:45.185Z,18.14
2016-11-15T04:58:17.501Z,18.14
2016-11-15T04:58:49.824Z,18.24
2016-11-15T04:59:22.162Z,18.05
2016-11-15T04:59:54.492Z,18.17
2016-11-15T05:00:26.819Z,18.13
2016-11-15T05:00:59.145Z,18.14
2016-11-15T05:01:31.480Z,18.21
2016-11-15T05:02:03.814Z,18.16
2016-11-15T05:02:36.146Z,18.13
2016-11-15T05:03:08.560Z,18.24
2016-11-15T05:03:40.893Z,18.17
2016-11-15T05:04:13.210Z,18.2
2016-11-15T05:04:45.546Z,18.05
2016-11-15T05:05:17.873Z,18.23
2016-11-15T05:05:50.208Z,18.2
2016-11-15T05:06:22.536Z,18.1
2016-11-15T05:06:54.876Z,18.17
2016-11-15T05:07:27.193Z,18.17
2016-11-15T05:07:59.517Z,18.14
2016-11-15T05:08:31.831Z,18.11
2016-11-15T05:09:04.162Z,18.08
2016-11-15T05:09:36.481Z,18.14
2016-11-15T05:10:08.809Z,18.03
2016-11-15T05:10:41.133Z,18.21
2016-11-15T05:11:13.467Z,18.14
2016-11-15T05:11:45.781Z,18.16
2016-11-15T05:12:18.096Z,18.17
2016-11-15T05:12:50.419Z,18.16
2016-11-15T05:13:22.743Z,18.2
2016-11-15T05:13:55.059Z,18.11
2016-11-15T05:14:27.383Z,18.14
2016-11-15T05:14:59.709Z,18.17
2016-11-15T05:15:32.046Z,18.16
2016-11-15T05:16:04.375Z,18.17
2016-11-15T05:16:36.698Z,18.13
2016-11-15T05:17:09.029Z,18.14
2016-11-15T05:17:41.345Z,18.23
2016-11-15T05:18:13.671Z,18.13
2016-11-15T05:18:46.017Z,18.16
2016-11-15T05:19:18.356Z,18.17
2016-11-15T05:19:50.689Z,18.13
2016-11-15T05:20:23.028Z,18.11
2016-11-15T05:20:55.362Z,18.11
2016-11-15T05:21:27.689Z,18.19
2016-11-15T05:22:00.015Z,18.14
2016-11-15T05:22:32.340Z,18.11
2016-11-15T05:23:04.675Z,18.2
2016-11-15T05:23:36.997Z,18.16
2016-11-15T05:24:09.316Z,18.16
2016-11-15T05:24:41.651Z,18.11
2016-11-15T05:25:13.956Z,18.11
2016-11-15T05:25:46.297Z,18.2
2016-11-15T05:26:18.633Z,18.13
2016-11-15T05:26:51.001Z,18.2
2016-11-15T05:27:23.351Z,18.14
2016-11-15T05:27:55.728Z,18.17
2016-11-15T05:28:28.057Z,18.14
2016-11-15T05:29:00.382Z,18.14
2016-11-15T05:29:32.703Z,18.14
2016-11-15T05:30:05.029Z,18.14
2016-11-15T05:30:37.359Z,18.1
2016-11-15T05:31:09.688Z,18.14
2016-11-15T05:31:42.012Z,18.03
2016-11-15T05:32:14.342Z,18.17
2016-11-15T05:32:46.715Z,18.2
2016-11-15T05:33:19.032Z,18.06
2016-11-15T05:33:51.359Z,18.19
2016-11-15T05:34:23.689Z,18.2
2016-11-15T05:34:56.044Z,18.13
2016-11-15T05:35:28.373Z,18.17
2016-11-15T05:36:00.687Z,18.14
2016-11-15T05:36:33.024Z,18.17
2016-11-15T05:37:05.351Z,18.13
2016-11-15T05:37:37.657Z,18.1
2016-11-15T05:38:09.985Z,18.14
2016-11-15T05:38:42.330Z,18.16
2016-11-15T05:39:14.653Z,18.1
2016-11-15T05:39:46.990Z,18.23
2016-11-15T05:40:19.308Z,18.2
2016-11-15T05:40:51.632Z,18.13
2016-11-15T05:41:23.964Z,18.05
2016-11-15T05:41:56.286Z,18.21
2016-11-15T05:42:28.588Z,18.13
2016-11-15T05:43:00.902Z,18.2
2016-11-15T05:43:33.242Z,18.19
2016-11-15T05:44:05.575Z,18.2
2016-11-15T05:44:37.912Z,18.26
2016-11-15T05:45:10.243Z,18.13
2016-11-15T05:45:42.552Z,18.13
2016-11-15T05:46:14.910Z,18.23
2016-11-15T05:46:47.263Z,18.16
2016-11-15T05:47:19.580Z,18.2
2016-11-15T05:47:51.910Z,18.23
2016-11-15T05:48:24.242Z,18.11
2016-11-15T05:48:56.568Z,18.16
2016-11-15T05:49:28.904Z,18.14
2016-11-15T05:50:01.225Z,18.17
2016-11-15T05:50:33.537Z,18.16
2016-11-15T05:51:05.859Z,18.17
2016-11-15T05:51:38.178Z,18.17
2016-11-15T05:52:10.507Z,18.2
2016-11-15T05:52:42.829Z,18.1
2016-11-15T05:53:15.145Z,18.17
2016-11-15T05:53:47.475Z,18.16
2016-11-15T05:54:19.807Z,18.19
2016-11-15T05:54:52.798Z,18.13
2016-11-15T05:55:25.123Z,18.21
2016-11-15T05:55:57.456Z,18.19
2016-11-15T05:56:29.782Z,18.13
2016-11-15T05:57:02.150Z,18.14
2016-11-15T05:57:34.476Z,18.16
2016-11-15T05:58:06.829Z,18.23
2016-11-15T05:58:39.147Z,18.03
2016-11-15T05:59:11.474Z,18.14
2016-11-15T05:59:43.809Z,18.2
2016-11-15T06:00:16.123Z,18.16
2016-11-15T06:00:48.449Z,18.23
2016-11-15T06:01:20.770Z,18.23
2016-11-15T06:01:53.093Z,18.1
2016-11-15T06:02:25.423Z,18.19
2016-11-15T06:02:57.749Z,18.17
2016-11-15T06:03:30.082Z,18.23
2016-11-15T06:04:02.399Z,18.14
2016-11-15T06:04:34.724Z,18.17
2016-11-15T06:05:07.051Z,18.06
2016-11-15T06:05:39.374Z,18.14
2016-11-15T06:06:11.683Z,18.16
2016-11-15T06:06:44.013Z,18.2
2016-11-15T06:07:16.348Z,18.2
2016-11-15T06:07:48.680Z,18.17
2016-11-15T06:08:21.007Z,18.17
2016-11-15T06:08:53.324Z,18.1
2016-11-15T06:09:25.691Z,18.23
2016-11-15T06:09:58.067Z,18.19
2016-11-15T06:10:30.448Z,18.21
2016-11-15T06:11:02.759Z,18.24
2016-11-15T06:11:35.098Z,18.03
2016-11-15T06:12:07.469Z,18.2
2016-11-15T06:12:39.806Z,18.1
2016-11-15T06:13:12.126Z,18.19
2016-11-15T06:13:44.448Z,18.17
2016-11-15T06:14:16.781Z,18.23
2016-11-15T06:14:49.109Z,18.16
2016-11-15T06:15:21.425Z,18.17
2016-11-15T06:15:53.766Z,18.1
2016-11-15T06:16:26.169Z,18.17
2016-11-15T06:16:58.886Z,18.14
2016-11-15T06:17:31.227Z,18.2
2016-11-15T06:18:03.561Z,18.16
2016-11-15T06:18:35.903Z,18.14
2016-11-15T06:19:08.246Z,18.23
2016-11-15T06:19:40.573Z,18.21
2016-11-15T06:20:12.904Z,18.14
2016-11-15T06:20:45.231Z,18.26
2016-11-15T06:21:17.556Z,18.16
2016-11-15T06:21:49.879Z,18.23
2016-11-15T06:22:22.195Z,18.14
2016-11-15T06:22:54.550Z,18.2
2016-11-15T06:23:27.214Z,18.16
2016-11-15T06:24:00.376Z,18.21
2016-11-15T06:24:32.703Z,18.23
2016-11-15T06:25:05.035Z,18.24
2016-11-15T06:25:37.363Z,18.19
2016-11-15T06:26:09.697Z,18.2
2016-11-15T06:26:42.019Z,18.26
2016-11-15T06:27:14.341Z,18.2
2016-11-15T06:27:46.717Z,18.16
2016-11-15T06:28:19.050Z,18.21
2016-11-15T06:28:51.402Z,18.21
2016-11-15T06:29:23.738Z,18.23
2016-11-15T06:29:56.071Z,18.2
2016-11-15T06:30:28.439Z,18.19
2016-11-15T06:31:00.851Z,18.21
2016-11-15T06:31:33.178Z,18.2
2016-11-15T06:32:05.534Z,18.19
2016-11-15T06:32:37.867Z,18.21
2016-11-15T06:33:10.206Z,18.2
2016-11-15T06:33:42.528Z,18.19
2016-11-15T06:34:14.869Z,18.2
2016-11-15T06:34:48.900Z,18.19
2016-11-15T06:35:23.304Z,18.2
2016-11-15T06:35:56.725Z,18.19
2016-11-15T06:36:29.348Z,18.17
2016-11-15T06:37:01.933Z,18.17
2016-11-15T06:37:35.405Z,18.19
2016-11-15T06:38:10.157Z,18.17
2016-11-15T06:38:43.878Z,18.2
2016-11-15T06:39:16.527Z,18.19
2016-11-15T06:39:50.929Z,18.16
2016-11-15T06:40:24.919Z,18.14
2016-11-15T06:40:59.037Z,18.16
2016-11-15T06:41:38.482Z,18.19
2016-11-15T06:42:11.064Z,18.19
2016-11-15T06:42:43.615Z,18.19
2016-11-15T06:43:15.924Z,18.19
2016-11-15T06:43:48.255Z,18.26
2016-11-15T06:44:20.598Z,18.17
2016-11-15T06:44:52.926Z,18.21
2016-11-15T06:45:25.257Z,18.16
2016-11-15T06:45:57.592Z,18.19
2016-11-15T06:46:29.911Z,18.2
2016-11-15T06:47:02.232Z,18.14
2016-11-15T06:47:34.570Z,18.21
2016-11-15T06:48:06.901Z,18.17
2016-11-15T06:48:39.214Z,18.23
2016-11-15T06:49:11.538Z,18.19
2016-11-15T06:49:43.906Z,18.19
2016-11-15T06:50:16.232Z,18.19
2016-11-15T06:50:48.585Z,18.19
2016-11-15T06:51:20.984Z,18.2
2016-11-15T06:51:53.295Z,18.2
2016-11-15T06:52:25.623Z,18.14
2016-11-15T06:52:57.960Z,18.16
2016-11-15T06:53:30.270Z,18.16
2016-11-15T06:54:02.588Z,18.19
2016-11-15T06:54:34.913Z,18.19
2016-11-15T06:55:07.243Z,18.2
2016-11-15T06:55:39.575Z,18.19
2016-11-15T06:56:11.929Z,18.13
2016-11-15T06:56:44.260Z,18.19
2016-11-15T06:57:17.214Z,18.24
2016-11-15T06:57:49.559Z,18.16
2016-11-15T06:58:21.898Z,18.2